sensor_id;sensor_type;location;lat;lon;timestamp;temperature;humidity
49579;DHT22;35483;50.828;3.228;2023-06-05T00:00:53;15.10;73.40
49579;DHT22;35483;50.828;3.228;2023-06-05T00:03:19;15.00;74.90
49579;DHT22;35483;50.828;3.228;2023-06-05T00:05:45;15.00;75.20
49579;DHT22;35483;50.828;3.228;2023-06-05T00:08:11;15.00;74.30
49579;DHT22;35483;50.828;3.228;2023-06-05T00:10:37;15.00;74.40
49579;DHT22;35483;50.828;3.228;2023-06-05T00:13:02;14.90;74.10
49579;DHT22;35483;50.828;3.228;2023-06-05T00:15:28;14.90;75.10
49579;DHT22;35483;50.828;3.228;2023-06-05T00:17:56;14.90;73.70
49579;DHT22;35483;50.828;3.228;2023-06-05T00:20:22;14.90;73.90
49579;DHT22;35483;50.828;3.228;2023-06-05T00:22:48;14.90;73.70
49579;DHT22;35483;50.828;3.228;2023-06-05T00:25:14;14.90;74.30
49579;DHT22;35483;50.828;3.228;2023-06-05T00:27:40;14.90;74.90
49579;DHT22;35483;50.828;3.228;2023-06-05T00:30:10;14.80;73.80
49579;DHT22;35483;50.828;3.228;2023-06-05T00:32:36;14.80;74.00
49579;DHT22;35483;50.828;3.228;2023-06-05T00:35:02;14.80;73.80
49579;DHT22;35483;50.828;3.228;2023-06-05T00:37:28;14.80;75.50
49579;DHT22;35483;50.828;3.228;2023-06-05T00:39:55;14.70;74.50
49579;DHT22;35483;50.828;3.228;2023-06-05T00:42:21;14.70;74.50
49579;DHT22;35483;50.828;3.228;2023-06-05T00:44:47;14.70;74.40
49579;DHT22;35483;50.828;3.228;2023-06-05T00:47:15;14.60;75.50
49579;DHT22;35483;50.828;3.228;2023-06-05T00:49:41;14.60;75.70
49579;DHT22;35483;50.828;3.228;2023-06-05T00:52:07;14.50;75.00
49579;DHT22;35483;50.828;3.228;2023-06-05T00:54:33;14.60;74.40
49579;DHT22;35483;50.828;3.228;2023-06-05T00:56:59;14.50;74.60
49579;DHT22;35483;50.828;3.228;2023-06-05T00:59:26;14.50;75.80
49579;DHT22;35483;50.828;3.228;2023-06-05T01:01:52;14.50;74.80
49579;DHT22;35483;50.828;3.228;2023-06-05T01:04:18;14.50;75.50
49579;DHT22;35483;50.828;3.228;2023-06-05T01:06:44;14.50;75.50
49579;DHT22;35483;50.828;3.228;2023-06-05T01:09:12;14.50;74.70
49579;DHT22;35483;50.828;3.228;2023-06-05T01:11:56;14.50;76.00
49579;DHT22;35483;50.828;3.228;2023-06-05T01:14:31;14.40;76.20
49579;DHT22;35483;50.828;3.228;2023-06-05T01:17:00;14.40;77.10
49579;DHT22;35483;50.828;3.228;2023-06-05T01:19:28;14.40;76.00
49579;DHT22;35483;50.828;3.228;2023-06-05T01:21:57;14.40;74.90
49579;DHT22;35483;50.828;3.228;2023-06-05T01:24:22;14.40;74.60
49579;DHT22;35483;50.828;3.228;2023-06-05T01:29:22;14.40;75.00
49579;DHT22;35483;50.828;3.228;2023-06-05T01:31:49;14.40;74.50
49579;DHT22;35483;50.828;3.228;2023-06-05T01:34:17;14.30;75.00
49579;DHT22;35483;50.828;3.228;2023-06-05T01:36:45;14.30;74.80
49579;DHT22;35483;50.828;3.228;2023-06-05T01:39:12;14.30;74.90
49579;DHT22;35483;50.828;3.228;2023-06-05T01:41:39;14.30;74.90
49579;DHT22;35483;50.828;3.228;2023-06-05T01:44:06;14.20;75.00
49579;DHT22;35483;50.828;3.228;2023-06-05T01:46:33;14.20;75.60
49579;DHT22;35483;50.828;3.228;2023-06-05T01:49:00;14.20;74.80
49579;DHT22;35483;50.828;3.228;2023-06-05T01:51:28;14.20;75.40
49579;DHT22;35483;50.828;3.228;2023-06-05T01:53:53;14.10;75.30
49579;DHT22;35483;50.828;3.228;2023-06-05T01:56:19;14.10;75.20
49579;DHT22;35483;50.828;3.228;2023-06-05T01:58:47;14.10;74.60
49579;DHT22;35483;50.828;3.228;2023-06-05T02:01:13;14.10;75.10
49579;DHT22;35483;50.828;3.228;2023-06-05T02:03:41;14.10;75.00
49579;DHT22;35483;50.828;3.228;2023-06-05T02:06:13;14.10;74.90
49579;DHT22;35483;50.828;3.228;2023-06-05T02:08:40;14.10;75.60
49579;DHT22;35483;50.828;3.228;2023-06-05T02:11:05;14.00;74.90
49579;DHT22;35483;50.828;3.228;2023-06-05T02:13:38;14.00;76.70
49579;DHT22;35483;50.828;3.228;2023-06-05T02:16:05;13.90;76.30
49579;DHT22;35483;50.828;3.228;2023-06-05T02:18:31;13.90;75.40
49579;DHT22;35483;50.828;3.228;2023-06-05T02:20:57;13.90;75.20
49579;DHT22;35483;50.828;3.228;2023-06-05T02:23:23;13.90;74.80
49579;DHT22;35483;50.828;3.228;2023-06-05T02:25:50;13.80;75.60
49579;DHT22;35483;50.828;3.228;2023-06-05T02:28:15;13.80;77.60
49579;DHT22;35483;50.828;3.228;2023-06-05T02:30:42;13.80;75.40
49579;DHT22;35483;50.828;3.228;2023-06-05T02:33:10;13.80;75.00
49579;DHT22;35483;50.828;3.228;2023-06-05T02:35:37;13.80;75.80
49579;DHT22;35483;50.828;3.228;2023-06-05T02:38:04;13.80;75.50
49579;DHT22;35483;50.828;3.228;2023-06-05T02:40:32;13.80;75.00
49579;DHT22;35483;50.828;3.228;2023-06-05T02:42:57;13.70;76.60
49579;DHT22;35483;50.828;3.228;2023-06-05T02:45:23;13.70;75.80
49579;DHT22;35483;50.828;3.228;2023-06-05T02:47:49;13.70;77.30
49579;DHT22;35483;50.828;3.228;2023-06-05T02:50:14;13.70;76.30
49579;DHT22;35483;50.828;3.228;2023-06-05T02:52:40;13.60;76.50
49579;DHT22;35483;50.828;3.228;2023-06-05T02:55:06;13.60;76.00
49579;DHT22;35483;50.828;3.228;2023-06-05T02:57:33;13.60;76.30
49579;DHT22;35483;50.828;3.228;2023-06-05T03:00:10;13.60;76.80
49579;DHT22;35483;50.828;3.228;2023-06-05T03:02:40;13.70;76.10
49579;DHT22;35483;50.828;3.228;2023-06-05T03:05:07;13.60;75.60
49579;DHT22;35483;50.828;3.228;2023-06-05T03:07:34;13.60;76.00
49579;DHT22;35483;50.828;3.228;2023-06-05T03:10:01;13.60;75.50
49579;DHT22;35483;50.828;3.228;2023-06-05T03:12:26;13.60;76.00
49579;DHT22;35483;50.828;3.228;2023-06-05T03:14:52;13.60;77.10
49579;DHT22;35483;50.828;3.228;2023-06-05T03:17:18;13.50;77.20
49579;DHT22;35483;50.828;3.228;2023-06-05T03:19:43;13.50;76.50
49579;DHT22;35483;50.828;3.228;2023-06-05T03:22:09;13.50;77.10
49579;DHT22;35483;50.828;3.228;2023-06-05T03:24:35;13.40;76.30
49579;DHT22;35483;50.828;3.228;2023-06-05T03:27:03;13.40;77.60
49579;DHT22;35483;50.828;3.228;2023-06-05T03:29:30;13.40;76.80
49579;DHT22;35483;50.828;3.228;2023-06-05T03:31:55;13.40;75.90
49579;DHT22;35483;50.828;3.228;2023-06-05T03:34:21;13.40;77.30
49579;DHT22;35483;50.828;3.228;2023-06-05T03:36:52;13.40;78.30
49579;DHT22;35483;50.828;3.228;2023-06-05T03:39:17;13.40;76.00
49579;DHT22;35483;50.828;3.228;2023-06-05T03:41:44;13.40;76.50
49579;DHT22;35483;50.828;3.228;2023-06-05T03:44:10;13.30;76.90
49579;DHT22;35483;50.828;3.228;2023-06-05T03:46:36;13.30;76.90
49579;DHT22;35483;50.828;3.228;2023-06-05T03:49:02;13.30;77.70
49579;DHT22;35483;50.828;3.228;2023-06-05T03:51:34;13.30;76.60
49579;DHT22;35483;50.828;3.228;2023-06-05T03:54:00;13.40;77.50
49579;DHT22;35483;50.828;3.228;2023-06-05T03:56:26;13.40;76.30
49579;DHT22;35483;50.828;3.228;2023-06-05T03:59:02;13.40;77.80
49579;DHT22;35483;50.828;3.228;2023-06-05T04:01:37;13.40;76.10
49579;DHT22;35483;50.828;3.228;2023-06-05T04:04:06;13.40;76.60
49579;DHT22;35483;50.828;3.228;2023-06-05T04:06:32;13.50;76.40
49579;DHT22;35483;50.828;3.228;2023-06-05T04:08:58;13.50;76.20
49579;DHT22;35483;50.828;3.228;2023-06-05T04:11:25;13.50;76.60
49579;DHT22;35483;50.828;3.228;2023-06-05T04:13:56;13.50;77.00
49579;DHT22;35483;50.828;3.228;2023-06-05T04:16:22;13.50;78.90
49579;DHT22;35483;50.828;3.228;2023-06-05T04:18:48;13.50;76.30
49579;DHT22;35483;50.828;3.228;2023-06-05T04:21:13;13.50;77.30
49579;DHT22;35483;50.828;3.228;2023-06-05T04:23:39;13.50;76.80
49579;DHT22;35483;50.828;3.228;2023-06-05T04:26:04;13.60;76.20
49579;DHT22;35483;50.828;3.228;2023-06-05T04:28:31;13.60;78.00
49579;DHT22;35483;50.828;3.228;2023-06-05T04:30:57;13.60;76.50
49579;DHT22;35483;50.828;3.228;2023-06-05T04:33:23;13.70;76.70
49579;DHT22;35483;50.828;3.228;2023-06-05T04:35:48;13.70;76.10
49579;DHT22;35483;50.828;3.228;2023-06-05T04:38:14;13.70;76.50
49579;DHT22;35483;50.828;3.228;2023-06-05T04:40:39;13.80;76.90
49579;DHT22;35483;50.828;3.228;2023-06-05T04:43:06;13.80;77.70
49579;DHT22;35483;50.828;3.228;2023-06-05T04:45:34;13.80;76.90
49579;DHT22;35483;50.828;3.228;2023-06-05T04:48:00;13.90;76.30
49579;DHT22;35483;50.828;3.228;2023-06-05T04:50:27;13.90;75.90
49579;DHT22;35483;50.828;3.228;2023-06-05T04:52:53;14.00;76.30
49579;DHT22;35483;50.828;3.228;2023-06-05T04:55:19;14.10;76.10
49579;DHT22;35483;50.828;3.228;2023-06-05T04:57:45;14.10;76.50
49579;DHT22;35483;50.828;3.228;2023-06-05T05:00:12;14.20;76.80
49579;DHT22;35483;50.828;3.228;2023-06-05T05:02:38;14.20;76.00
49579;DHT22;35483;50.828;3.228;2023-06-05T05:05:04;14.30;76.10
49579;DHT22;35483;50.828;3.228;2023-06-05T05:07:29;14.30;76.50
49579;DHT22;35483;50.828;3.228;2023-06-05T05:09:56;14.40;75.90
49579;DHT22;35483;50.828;3.228;2023-06-05T05:12:21;14.40;75.80
49579;DHT22;35483;50.828;3.228;2023-06-05T05:14:47;14.50;76.60
49579;DHT22;35483;50.828;3.228;2023-06-05T05:17:12;14.60;76.60
49579;DHT22;35483;50.828;3.228;2023-06-05T05:19:40;14.60;76.10
49579;DHT22;35483;50.828;3.228;2023-06-05T05:22:06;14.70;76.00
49579;DHT22;35483;50.828;3.228;2023-06-05T05:24:32;14.80;76.00
49579;DHT22;35483;50.828;3.228;2023-06-05T05:26:58;14.80;76.10
49579;DHT22;35483;50.828;3.228;2023-06-05T05:29:24;14.90;76.50
49579;DHT22;35483;50.828;3.228;2023-06-05T05:31:51;15.00;76.10
49579;DHT22;35483;50.828;3.228;2023-06-05T05:34:17;15.10;75.60
49579;DHT22;35483;50.828;3.228;2023-06-05T05:36:43;15.90;75.20
49579;DHT22;35483;50.828;3.228;2023-06-05T05:39:09;17.20;72.30
49579;DHT22;35483;50.828;3.228;2023-06-05T05:41:35;18.70;69.80
49579;DHT22;35483;50.828;3.228;2023-06-05T05:44:01;19.90;67.40
49579;DHT22;35483;50.828;3.228;2023-06-05T05:46:27;21.00;65.60
49579;DHT22;35483;50.828;3.228;2023-06-05T05:48:52;22.00;64.00
49579;DHT22;35483;50.828;3.228;2023-06-05T05:51:19;22.70;63.00
49579;DHT22;35483;50.828;3.228;2023-06-05T05:53:46;23.40;61.90
49579;DHT22;35483;50.828;3.228;2023-06-05T05:56:12;23.50;61.60
49579;DHT22;35483;50.828;3.228;2023-06-05T05:58:40;24.10;60.90
49579;DHT22;35483;50.828;3.228;2023-06-05T06:01:06;24.50;60.20
49579;DHT22;35483;50.828;3.228;2023-06-05T06:03:32;24.80;59.80
49579;DHT22;35483;50.828;3.228;2023-06-05T06:06:02;25.00;59.40
49579;DHT22;35483;50.828;3.228;2023-06-05T06:08:30;25.20;59.10
49579;DHT22;35483;50.828;3.228;2023-06-05T06:10:55;25.30;59.10
49579;DHT22;35483;50.828;3.228;2023-06-05T06:13:21;24.90;59.20
49579;DHT22;35483;50.828;3.228;2023-06-05T06:15:48;23.30;60.90
49579;DHT22;35483;50.828;3.228;2023-06-05T06:18:14;21.50;64.30
49579;DHT22;35483;50.828;3.228;2023-06-05T06:20:39;20.20;66.90
49579;DHT22;35483;50.828;3.228;2023-06-05T06:23:07;19.10;69.20
49579;DHT22;35483;50.828;3.228;2023-06-05T06:25:32;18.40;70.30
49579;DHT22;35483;50.828;3.228;2023-06-05T06:28:00;18.00;71.10
49579;DHT22;35483;50.828;3.228;2023-06-05T06:30:26;17.60;72.00
49579;DHT22;35483;50.828;3.228;2023-06-05T06:32:53;17.30;72.60
49579;DHT22;35483;50.828;3.228;2023-06-05T06:35:23;17.20;72.50
49579;DHT22;35483;50.828;3.228;2023-06-05T06:37:53;17.10;72.60
49579;DHT22;35483;50.828;3.228;2023-06-05T06:40:19;17.10;72.90
49579;DHT22;35483;50.828;3.228;2023-06-05T06:42:44;16.90;73.40
49579;DHT22;35483;50.828;3.228;2023-06-05T06:45:10;16.90;73.10
49579;DHT22;35483;50.828;3.228;2023-06-05T06:47:36;16.90;73.30
49579;DHT22;35483;50.828;3.228;2023-06-05T06:50:02;16.90;73.30
49579;DHT22;35483;50.828;3.228;2023-06-05T06:52:28;16.90;73.80
49579;DHT22;35483;50.828;3.228;2023-06-05T06:54:53;16.90;73.80
49579;DHT22;35483;50.828;3.228;2023-06-05T06:57:19;16.80;73.70
49579;DHT22;35483;50.828;3.228;2023-06-05T06:59:45;16.90;73.50
49579;DHT22;35483;50.828;3.228;2023-06-05T07:02:13;16.80;73.50
49579;DHT22;35483;50.828;3.228;2023-06-05T07:04:40;16.90;74.00
49579;DHT22;35483;50.828;3.228;2023-06-05T07:07:11;16.90;74.00
49579;DHT22;35483;50.828;3.228;2023-06-05T07:09:40;16.90;74.10
49579;DHT22;35483;50.828;3.228;2023-06-05T07:12:08;17.00;74.70
49579;DHT22;35483;50.828;3.228;2023-06-05T07:14:34;16.90;74.30
49579;DHT22;35483;50.828;3.228;2023-06-05T07:17:01;17.00;73.80
49579;DHT22;35483;50.828;3.228;2023-06-05T07:19:28;17.00;73.90
49579;DHT22;35483;50.828;3.228;2023-06-05T07:21:55;17.00;75.40
49579;DHT22;35483;50.828;3.228;2023-06-05T07:24:23;17.00;74.50
49579;DHT22;35483;50.828;3.228;2023-06-05T07:26:51;17.00;74.20
49579;DHT22;35483;50.828;3.228;2023-06-05T07:29:18;17.10;74.10
49579;DHT22;35483;50.828;3.228;2023-06-05T07:31:44;17.10;74.40
49579;DHT22;35483;50.828;3.228;2023-06-05T07:34:10;17.20;75.00
49579;DHT22;35483;50.828;3.228;2023-06-05T07:36:38;17.20;74.30
49579;DHT22;35483;50.828;3.228;2023-06-05T07:39:04;17.20;74.20
49579;DHT22;35483;50.828;3.228;2023-06-05T07:41:30;17.20;75.50
49579;DHT22;35483;50.828;3.228;2023-06-05T07:43:56;17.30;74.50
49579;DHT22;35483;50.828;3.228;2023-06-05T07:46:21;17.30;74.40
49579;DHT22;35483;50.828;3.228;2023-06-05T07:48:47;17.40;74.30
49579;DHT22;35483;50.828;3.228;2023-06-05T07:51:13;17.50;74.50
49579;DHT22;35483;50.828;3.228;2023-06-05T07:53:38;17.50;74.50
49579;DHT22;35483;50.828;3.228;2023-06-05T07:56:05;17.50;74.60
49579;DHT22;35483;50.828;3.228;2023-06-05T07:58:31;17.60;74.60
49579;DHT22;35483;50.828;3.228;2023-06-05T08:00:58;17.60;74.80
49579;DHT22;35483;50.828;3.228;2023-06-05T08:03:24;17.70;75.00
49579;DHT22;35483;50.828;3.228;2023-06-05T08:05:50;17.70;75.10
49579;DHT22;35483;50.828;3.228;2023-06-05T08:08:18;17.60;75.20
49579;DHT22;35483;50.828;3.228;2023-06-05T08:10:44;17.60;77.00
49579;DHT22;35483;50.828;3.228;2023-06-05T08:13:09;17.70;75.20
49579;DHT22;35483;50.828;3.228;2023-06-05T08:15:36;17.70;75.00
49579;DHT22;35483;50.828;3.228;2023-06-05T08:18:03;17.80;74.90
49579;DHT22;35483;50.828;3.228;2023-06-05T08:20:29;17.90;74.80
49579;DHT22;35483;50.828;3.228;2023-06-05T08:22:55;17.80;75.20
49579;DHT22;35483;50.828;3.228;2023-06-05T08:25:24;17.90;75.00
49579;DHT22;35483;50.828;3.228;2023-06-05T08:27:50;17.90;75.20
49579;DHT22;35483;50.828;3.228;2023-06-05T08:30:16;17.90;75.00
49579;DHT22;35483;50.828;3.228;2023-06-05T08:32:43;18.00;74.90
49579;DHT22;35483;50.828;3.228;2023-06-05T08:35:10;18.00;75.40
49579;DHT22;35483;50.828;3.228;2023-06-05T08:37:36;18.00;75.10
49579;DHT22;35483;50.828;3.228;2023-06-05T08:40:03;18.00;75.60
49579;DHT22;35483;50.828;3.228;2023-06-05T08:42:32;18.10;75.20
49579;DHT22;35483;50.828;3.228;2023-06-05T08:44:58;18.10;75.70
49579;DHT22;35483;50.828;3.228;2023-06-05T08:47:28;18.20;75.20
49579;DHT22;35483;50.828;3.228;2023-06-05T08:49:55;18.30;75.40
49579;DHT22;35483;50.828;3.228;2023-06-05T08:52:23;18.40;75.20
49579;DHT22;35483;50.828;3.228;2023-06-05T08:54:49;18.50;75.00
49579;DHT22;35483;50.828;3.228;2023-06-05T08:57:15;18.40;75.10
49579;DHT22;35483;50.828;3.228;2023-06-05T08:59:42;18.50;75.00
49579;DHT22;35483;50.828;3.228;2023-06-05T09:02:09;18.50;75.20
49579;DHT22;35483;50.828;3.228;2023-06-05T09:04:38;18.60;75.20
49579;DHT22;35483;50.828;3.228;2023-06-05T09:07:04;18.60;75.00
49579;DHT22;35483;50.828;3.228;2023-06-05T09:09:31;18.60;75.90
49579;DHT22;35483;50.828;3.228;2023-06-05T09:12:05;18.70;75.30
49579;DHT22;35483;50.828;3.228;2023-06-05T09:14:32;18.70;75.50
49579;DHT22;35483;50.828;3.228;2023-06-05T09:16:59;18.80;75.00
49579;DHT22;35483;50.828;3.228;2023-06-05T09:19:38;18.80;75.10
49579;DHT22;35483;50.828;3.228;2023-06-05T09:22:06;18.90;75.30
49579;DHT22;35483;50.828;3.228;2023-06-05T09:24:32;18.80;75.10
49579;DHT22;35483;50.828;3.228;2023-06-05T09:26:58;18.90;75.10
49579;DHT22;35483;50.828;3.228;2023-06-05T09:29:26;19.00;75.10
49579;DHT22;35483;50.828;3.228;2023-06-05T09:31:53;19.00;75.10
49579;DHT22;35483;50.828;3.228;2023-06-05T09:37:00;19.00;75.30
49579;DHT22;35483;50.828;3.228;2023-06-05T09:39:27;19.00;75.20
49579;DHT22;35483;50.828;3.228;2023-06-05T09:41:55;19.10;75.00
49579;DHT22;35483;50.828;3.228;2023-06-05T09:44:22;19.20;75.00
49579;DHT22;35483;50.828;3.228;2023-06-05T09:46:58;19.20;75.10
49579;DHT22;35483;50.828;3.228;2023-06-05T09:52:11;19.30;75.20
49579;DHT22;35483;50.828;3.228;2023-06-05T09:54:41;19.40;74.80
49579;DHT22;35483;50.828;3.228;2023-06-05T09:57:11;19.40;74.70
49579;DHT22;35483;50.828;3.228;2023-06-05T09:59:55;19.50;74.60
49579;DHT22;35483;50.828;3.228;2023-06-05T10:02:24;19.60;74.60
49579;DHT22;35483;50.828;3.228;2023-06-05T10:04:56;19.70;74.50
49579;DHT22;35483;50.828;3.228;2023-06-05T10:07:23;19.70;74.70
49579;DHT22;35483;50.828;3.228;2023-06-05T10:09:50;19.70;74.50
49579;DHT22;35483;50.828;3.228;2023-06-05T10:12:16;19.80;74.50
49579;DHT22;35483;50.828;3.228;2023-06-05T10:14:43;19.80;74.50
49579;DHT22;35483;50.828;3.228;2023-06-05T10:17:13;19.90;74.50
49579;DHT22;35483;50.828;3.228;2023-06-05T10:19:43;19.90;74.40
49579;DHT22;35483;50.828;3.228;2023-06-05T10:22:12;20.00;74.50
49579;DHT22;35483;50.828;3.228;2023-06-05T10:24:50;20.00;74.20
49579;DHT22;35483;50.828;3.228;2023-06-05T10:27:22;20.00;74.30
49579;DHT22;35483;50.828;3.228;2023-06-05T10:32:36;20.10;74.30
49579;DHT22;35483;50.828;3.228;2023-06-05T10:40:35;20.30;74.20
49579;DHT22;35483;50.828;3.228;2023-06-05T10:43:24;20.30;74.30
49579;DHT22;35483;50.828;3.228;2023-06-05T10:45:50;20.40;73.80
49579;DHT22;35483;50.828;3.228;2023-06-05T10:48:16;20.40;74.00
49579;DHT22;35483;50.828;3.228;2023-06-05T10:50:43;20.50;74.10
49579;DHT22;35483;50.828;3.228;2023-06-05T10:53:41;20.50;74.20
49579;DHT22;35483;50.828;3.228;2023-06-05T10:56:07;20.50;73.00
49579;DHT22;35483;50.828;3.228;2023-06-05T10:58:33;20.50;74.10
49579;DHT22;35483;50.828;3.228;2023-06-05T11:01:19;20.50;74.30
49579;DHT22;35483;50.828;3.228;2023-06-05T11:03:56;20.70;73.80
49579;DHT22;35483;50.828;3.228;2023-06-05T11:06:22;20.70;73.70
49579;DHT22;35483;50.828;3.228;2023-06-05T11:09:13;20.70;74.00
49579;DHT22;35483;50.828;3.228;2023-06-05T11:11:59;20.70;73.80
49579;DHT22;35483;50.828;3.228;2023-06-05T11:14:48;20.80;72.40
49579;DHT22;35483;50.828;3.228;2023-06-05T11:17:30;20.80;74.20
49579;DHT22;35483;50.828;3.228;2023-06-05T11:19:56;20.90;73.50
49579;DHT22;35483;50.828;3.228;2023-06-05T11:22:23;20.80;73.90
49579;DHT22;35483;50.828;3.228;2023-06-05T11:27:58;20.90;73.70
49579;DHT22;35483;50.828;3.228;2023-06-05T11:30:28;20.90;73.10
49579;DHT22;35483;50.828;3.228;2023-06-05T11:33:06;21.00;73.70
49579;DHT22;35483;50.828;3.228;2023-06-05T11:35:36;21.00;74.20
49579;DHT22;35483;50.828;3.228;2023-06-05T11:38:10;21.00;73.80
49579;DHT22;35483;50.828;3.228;2023-06-05T11:40:37;21.10;73.30
49579;DHT22;35483;50.828;3.228;2023-06-05T11:43:04;21.10;74.00
49579;DHT22;35483;50.828;3.228;2023-06-05T11:45:32;21.10;73.70
49579;DHT22;35483;50.828;3.228;2023-06-05T11:48:12;21.20;73.90
49579;DHT22;35483;50.828;3.228;2023-06-05T11:50:55;21.30;72.80
49579;DHT22;35483;50.828;3.228;2023-06-05T11:53:22;21.30;72.20
49579;DHT22;35483;50.828;3.228;2023-06-05T11:55:48;21.40;73.70
49579;DHT22;35483;50.828;3.228;2023-06-05T11:58:29;21.40;73.70
49579;DHT22;35483;50.828;3.228;2023-06-05T12:01:16;21.50;73.20
49579;DHT22;35483;50.828;3.228;2023-06-05T12:04:03;21.40;72.40
49579;DHT22;35483;50.828;3.228;2023-06-05T12:06:29;21.50;71.30
49579;DHT22;35483;50.828;3.228;2023-06-05T12:09:06;21.50;73.50
49579;DHT22;35483;50.828;3.228;2023-06-05T12:11:33;21.50;73.50
49579;DHT22;35483;50.828;3.228;2023-06-05T12:14:00;21.60;73.60
49579;DHT22;35483;50.828;3.228;2023-06-05T12:16:36;21.60;73.60
49579;DHT22;35483;50.828;3.228;2023-06-05T12:19:10;21.70;72.90
49579;DHT22;35483;50.828;3.228;2023-06-05T12:21:36;21.50;73.70
49579;DHT22;35483;50.828;3.228;2023-06-05T12:24:03;21.60;73.60
49579;DHT22;35483;50.828;3.228;2023-06-05T12:26:30;21.70;73.70
49579;DHT22;35483;50.828;3.228;2023-06-05T12:29:07;21.70;73.30
49579;DHT22;35483;50.828;3.228;2023-06-05T12:31:35;21.70;72.20
49579;DHT22;35483;50.828;3.228;2023-06-05T12:34:03;21.70;72.10
49579;DHT22;35483;50.828;3.228;2023-06-05T12:36:30;21.70;73.70
49579;DHT22;35483;50.828;3.228;2023-06-05T12:39:01;21.70;73.60
49579;DHT22;35483;50.828;3.228;2023-06-05T12:41:29;21.80;72.60
49579;DHT22;35483;50.828;3.228;2023-06-05T12:44:02;21.90;73.50
49579;DHT22;35483;50.828;3.228;2023-06-05T12:46:33;21.90;73.00
49579;DHT22;35483;50.828;3.228;2023-06-05T12:49:00;22.00;73.20
49579;DHT22;35483;50.828;3.228;2023-06-05T12:51:26;21.90;73.10
49579;DHT22;35483;50.828;3.228;2023-06-05T12:53:55;21.90;73.30
49579;DHT22;35483;50.828;3.228;2023-06-05T12:56:22;21.90;73.50
49579;DHT22;35483;50.828;3.228;2023-06-05T12:58:56;21.90;73.40
49579;DHT22;35483;50.828;3.228;2023-06-05T13:01:22;22.00;73.00
49579;DHT22;35483;50.828;3.228;2023-06-05T13:03:49;22.00;73.20
49579;DHT22;35483;50.828;3.228;2023-06-05T13:06:15;22.00;73.30
49579;DHT22;35483;50.828;3.228;2023-06-05T13:08:40;22.00;73.40
49579;DHT22;35483;50.828;3.228;2023-06-05T13:11:06;22.10;73.50
49579;DHT22;35483;50.828;3.228;2023-06-05T13:13:32;22.10;73.30
49579;DHT22;35483;50.828;3.228;2023-06-05T13:15:59;22.20;73.30
49579;DHT22;35483;50.828;3.228;2023-06-05T13:18:27;22.20;73.30
49579;DHT22;35483;50.828;3.228;2023-06-05T13:20:52;22.20;73.30
49579;DHT22;35483;50.828;3.228;2023-06-05T13:23:18;22.20;73.00
49579;DHT22;35483;50.828;3.228;2023-06-05T13:25:44;22.20;73.10
49579;DHT22;35483;50.828;3.228;2023-06-05T13:28:10;22.10;73.00
49579;DHT22;35483;50.828;3.228;2023-06-05T13:30:36;22.10;73.30
49579;DHT22;35483;50.828;3.228;2023-06-05T13:33:02;22.20;73.30
49579;DHT22;35483;50.828;3.228;2023-06-05T13:35:27;22.20;73.20
49579;DHT22;35483;50.828;3.228;2023-06-05T13:37:53;22.20;73.10
49579;DHT22;35483;50.828;3.228;2023-06-05T13:40:19;22.20;73.40
49579;DHT22;35483;50.828;3.228;2023-06-05T13:42:45;22.20;73.40
49579;DHT22;35483;50.828;3.228;2023-06-05T13:45:11;22.20;73.30
49579;DHT22;35483;50.828;3.228;2023-06-05T13:47:37;22.30;73.30
49579;DHT22;35483;50.828;3.228;2023-06-05T13:50:03;22.20;73.60
49579;DHT22;35483;50.828;3.228;2023-06-05T13:52:29;22.10;73.90
49579;DHT22;35483;50.828;3.228;2023-06-05T13:54:55;22.20;73.80
49579;DHT22;35483;50.828;3.228;2023-06-05T13:57:20;22.10;73.70
49579;DHT22;35483;50.828;3.228;2023-06-05T13:59:46;22.00;73.90
49579;DHT22;35483;50.828;3.228;2023-06-05T14:02:12;21.90;74.00
49579;DHT22;35483;50.828;3.228;2023-06-05T14:04:38;21.80;73.90
49579;DHT22;35483;50.828;3.228;2023-06-05T14:07:04;21.80;73.90
49579;DHT22;35483;50.828;3.228;2023-06-05T14:09:30;21.70;74.10
49579;DHT22;35483;50.828;3.228;2023-06-05T14:11:56;21.70;74.10
49579;DHT22;35483;50.828;3.228;2023-06-05T14:14:25;21.70;74.00
49579;DHT22;35483;50.828;3.228;2023-06-05T14:16:51;21.70;74.20
49579;DHT22;35483;50.828;3.228;2023-06-05T14:19:17;21.70;74.00
49579;DHT22;35483;50.828;3.228;2023-06-05T14:21:44;21.60;74.20
49579;DHT22;35483;50.828;3.228;2023-06-05T14:24:10;21.60;74.10
49579;DHT22;35483;50.828;3.228;2023-06-05T14:26:37;21.50;74.30
49579;DHT22;35483;50.828;3.228;2023-06-05T14:29:03;21.60;74.20
49579;DHT22;35483;50.828;3.228;2023-06-05T14:31:29;21.50;74.20
49579;DHT22;35483;50.828;3.228;2023-06-05T14:33:54;21.60;74.10
49579;DHT22;35483;50.828;3.228;2023-06-05T14:36:20;21.50;74.20
49579;DHT22;35483;50.828;3.228;2023-06-05T14:38:46;21.50;74.20
49579;DHT22;35483;50.828;3.228;2023-06-05T14:41:12;21.40;74.30
49579;DHT22;35483;50.828;3.228;2023-06-05T14:43:37;21.40;74.40
49579;DHT22;35483;50.828;3.228;2023-06-05T14:46:03;21.50;74.30
49579;DHT22;35483;50.828;3.228;2023-06-05T14:48:30;21.40;74.20
49579;DHT22;35483;50.828;3.228;2023-06-05T14:50:56;21.50;74.20
49579;DHT22;35483;50.828;3.228;2023-06-05T14:53:23;21.50;74.10
49579;DHT22;35483;50.828;3.228;2023-06-05T14:55:49;21.40;74.10
49579;DHT22;35483;50.828;3.228;2023-06-05T14:58:15;21.30;74.20
49579;DHT22;35483;50.828;3.228;2023-06-05T15:00:41;21.20;74.40
49579;DHT22;35483;50.828;3.228;2023-06-05T15:03:07;21.30;74.40
49579;DHT22;35483;50.828;3.228;2023-06-05T15:05:33;21.20;74.40
49579;DHT22;35483;50.828;3.228;2023-06-05T15:07:59;21.30;74.40
49579;DHT22;35483;50.828;3.228;2023-06-05T15:10:25;21.30;74.40
49579;DHT22;35483;50.828;3.228;2023-06-05T15:12:52;21.30;74.40
49579;DHT22;35483;50.828;3.228;2023-06-05T15:15:25;21.30;74.10
49579;DHT22;35483;50.828;3.228;2023-06-05T15:17:51;21.30;74.10
49579;DHT22;35483;50.828;3.228;2023-06-05T15:20:20;21.20;74.30
49579;DHT22;35483;50.828;3.228;2023-06-05T15:22:46;21.20;74.50
49579;DHT22;35483;50.828;3.228;2023-06-05T15:25:12;21.20;74.30
49579;DHT22;35483;50.828;3.228;2023-06-05T15:27:38;21.30;74.20
49579;DHT22;35483;50.828;3.228;2023-06-05T15:30:05;21.30;74.20
49579;DHT22;35483;50.828;3.228;2023-06-05T15:32:31;21.20;74.30
49579;DHT22;35483;50.828;3.228;2023-06-05T15:34:56;21.20;74.40
49579;DHT22;35483;50.828;3.228;2023-06-05T15:37:25;21.20;74.30
49579;DHT22;35483;50.828;3.228;2023-06-05T15:39:51;21.10;74.30
49579;DHT22;35483;50.828;3.228;2023-06-05T15:42:33;21.10;74.30
49579;DHT22;35483;50.828;3.228;2023-06-05T15:45:15;21.10;74.40
49579;DHT22;35483;50.828;3.228;2023-06-05T15:47:41;21.00;74.40
49579;DHT22;35483;50.828;3.228;2023-06-05T15:50:08;21.00;74.50
49579;DHT22;35483;50.828;3.228;2023-06-05T15:52:35;20.90;74.50